sensor_id;sensor_type;location;lat;lon;timestamp;pressure;altitude;pressure_sealevel;temperature;humidity
8894;BME280;4483;48.622;9.230;2023-02-08T00:01:18;99854.03;;;-3.20;78.68
8894;BME280;4483;48.622;9.230;2023-02-08T00:03:45;99854.38;;;-3.13;79.53
8894;BME280;4483;48.622;9.230;2023-02-08T00:06:13;99840.19;;;-3.30;80.23
8894;BME280;4483;48.622;9.230;2023-02-08T00:08:40;99844.28;;;-3.32;80.25
8894;BME280;4483;48.622;9.230;2023-02-08T00:11:07;99840.59;;;-3.38;78.92
8894;BME280;4483;48.622;9.230;2023-02-08T00:13:35;99834.44;;;-3.45;80.18
8894;BME280;4483;48.622;9.230;2023-02-08T00:16:02;99828.38;;;-3.48;79.57
8894;BME280;4483;48.622;9.230;2023-02-08T00:18:29;99827.38;;;-3.52;79.64
8894;BME280;4483;48.622;9.230;2023-02-08T00:20:56;99826.44;;;-3.54;81.28
8894;BME280;4483;48.622;9.230;2023-02-08T00:23:24;99825.66;;;-3.53;81.29
8894;BME280;4483;48.622;9.230;2023-02-08T00:25:51;99830.69;;;-3.53;80.51
8894;BME280;4483;48.622;9.230;2023-02-08T00:28:18;99828.09;;;-3.54;80.48
8894;BME280;4483;48.622;9.230;2023-02-08T00:30:45;99818.72;;;-3.57;80.45
8894;BME280;4483;48.622;9.230;2023-02-08T00:33:11;99822.19;;;-3.55;80.47
8894;BME280;4483;48.622;9.230;2023-02-08T00:35:38;99818.09;;;-3.53;81.51
8894;BME280;4483;48.622;9.230;2023-02-08T00:38:06;99818.22;;;-3.50;81.63
8894;BME280;4483;48.622;9.230;2023-02-08T00:40:34;99803.56;;;-3.58;81.03
8894;BME280;4483;48.622;9.230;2023-02-08T00:43:01;99819.16;;;-3.48;81.72
8894;BME280;4483;48.622;9.230;2023-02-08T00:45:28;99814.09;;;-3.48;80.36
8894;BME280;4483;48.622;9.230;2023-02-08T00:47:54;99809.00;;;-3.49;81.78
8894;BME280;4483;48.622;9.230;2023-02-08T00:50:21;99815.69;;;-3.50;80.30
8894;BME280;4483;48.622;9.230;2023-02-08T00:52:47;99811.53;;;-3.49;81.51
8894;BME280;4483;48.622;9.230;2023-02-08T00:55:14;99812.28;;;-3.52;81.48
8894;BME280;4483;48.622;9.230;2023-02-08T00:57:42;99819.03;;;-3.51;80.50
8894;BME280;4483;48.622;9.230;2023-02-08T01:00:10;99815.56;;;-3.53;81.70
8894;BME280;4483;48.622;9.230;2023-02-08T01:02:37;99815.50;;;-3.54;81.49
8894;BME280;4483;48.622;9.230;2023-02-08T01:05:04;99819.59;;;-3.56;81.86
8894;BME280;4483;48.622;9.230;2023-02-08T01:07:31;99829.69;;;-3.56;82.08
8894;BME280;4483;48.622;9.230;2023-02-08T01:09:58;99823.78;;;-3.57;81.97
8894;BME280;4483;48.622;9.230;2023-02-08T01:12:25;99803.06;;;-3.69;81.85
8894;BME280;4483;48.622;9.230;2023-02-08T01:14:53;99833.78;;;-3.58;80.95
8894;BME280;4483;48.622;9.230;2023-02-08T01:17:19;99830.38;;;-3.59;81.31
8894;BME280;4483;48.622;9.230;2023-02-08T01:19:46;99821.63;;;-3.67;81.76
8894;BME280;4483;48.622;9.230;2023-02-08T01:22:13;99835.75;;;-3.70;82.09
8894;BME280;4483;48.622;9.230;2023-02-08T01:24:39;99826.31;;;-3.74;81.27
8894;BME280;4483;48.622;9.230;2023-02-08T01:27:06;99827.97;;;-3.75;81.12
8894;BME280;4483;48.622;9.230;2023-02-08T01:29:32;99822.66;;;-3.81;82.27
8894;BME280;4483;48.622;9.230;2023-02-08T01:32:00;99815.75;;;-3.85;82.08
8894;BME280;4483;48.622;9.230;2023-02-08T01:34:27;99807.09;;;-3.90;81.66
8894;BME280;4483;48.622;9.230;2023-02-08T01:36:53;99807.25;;;-3.87;81.22
8894;BME280;4483;48.622;9.230;2023-02-08T01:39:20;99813.06;;;-3.88;81.75
8894;BME280;4483;48.622;9.230;2023-02-08T01:41:47;99808.75;;;-3.90;81.71
8894;BME280;4483;48.622;9.230;2023-02-08T01:47:18;99794.28;;;-3.94;81.65
8894;BME280;4483;48.622;9.230;2023-02-08T01:49:45;99792.66;;;-3.94;82.62
8894;BME280;4483;48.622;9.230;2023-02-08T01:52:13;99801.03;;;-3.93;82.75
8894;BME280;4483;48.622;9.230;2023-02-08T01:54:45;99789.19;;;-3.96;81.81
8894;BME280;4483;48.622;9.230;2023-02-08T01:57:14;99793.00;;;-4.04;82.05
8894;BME280;4483;48.622;9.230;2023-02-08T01:59:44;99787.81;;;-4.07;82.35
8894;BME280;4483;48.622;9.230;2023-02-08T02:02:16;99785.94;;;-4.11;82.24
8894;BME280;4483;48.622;9.230;2023-02-08T02:04:44;99784.06;;;-4.15;81.76
8894;BME280;4483;48.622;9.230;2023-02-08T02:07:12;99783.00;;;-4.20;82.10
8894;BME280;4483;48.622;9.230;2023-02-08T02:09:43;99790.41;;;-4.23;82.84
8894;BME280;4483;48.622;9.230;2023-02-08T02:12:12;99787.88;;;-4.23;82.59
8894;BME280;4483;48.622;9.230;2023-02-08T02:14:39;99776.94;;;-4.24;82.50
8894;BME280;4483;48.622;9.230;2023-02-08T02:17:06;99776.06;;;-4.24;82.16
8894;BME280;4483;48.622;9.230;2023-02-08T02:19:39;99775.13;;;-4.26;82.65
8894;BME280;4483;48.622;9.230;2023-02-08T02:22:32;99778.41;;;-4.29;82.31
8894;BME280;4483;48.622;9.230;2023-02-08T02:25:28;99774.00;;;-4.33;82.17
8894;BME280;4483;48.622;9.230;2023-02-08T02:28:19;99773.81;;;-4.36;82.27
8894;BME280;4483;48.622;9.230;2023-02-08T02:31:28;99769.47;;;-4.40;82.48
8894;BME280;4483;48.622;9.230;2023-02-08T02:34:01;99774.56;;;-4.38;83.08
8894;BME280;4483;48.622;9.230;2023-02-08T02:36:34;99767.66;;;-4.42;82.74
8894;BME280;4483;48.622;9.230;2023-02-08T02:39:14;99767.59;;;-4.44;82.54
8894;BME280;4483;48.622;9.230;2023-02-08T02:41:53;99762.19;;;-4.51;82.40
8894;BME280;4483;48.622;9.230;2023-02-08T02:44:45;99762.03;;;-4.54;83.61
8894;BME280;4483;48.622;9.230;2023-02-08T02:47:19;99755.97;;;-4.58;82.60
8894;BME280;4483;48.622;9.230;2023-02-08T02:49:53;99760.16;;;-4.58;83.45
8894;BME280;4483;48.622;9.230;2023-02-08T02:52:24;99763.31;;;-4.62;83.38
8894;BME280;4483;48.622;9.230;2023-02-08T02:55:02;99760.72;;;-4.64;83.35
8894;BME280;4483;48.622;9.230;2023-02-08T02:57:31;99763.16;;;-4.65;82.84
8894;BME280;4483;48.622;9.230;2023-02-08T02:59:59;99767.31;;;-4.66;83.21
8894;BME280;4483;48.622;9.230;2023-02-08T03:02:27;99775.50;;;-4.70;83.38
8894;BME280;4483;48.622;9.230;2023-02-08T03:04:55;99772.91;;;-4.71;82.64
8894;BME280;4483;48.622;9.230;2023-02-08T03:07:55;99768.44;;;-4.77;83.18
8894;BME280;4483;48.622;9.230;2023-02-08T03:10:39;99770.72;;;-4.81;82.53
8894;BME280;4483;48.622;9.230;2023-02-08T03:13:19;99766.47;;;-4.82;83.79
8894;BME280;4483;48.622;9.230;2023-02-08T03:15:58;99763.16;;;-4.81;83.05
8894;BME280;4483;48.622;9.230;2023-02-08T03:18:34;99763.03;;;-4.84;83.87
8894;BME280;4483;48.622;9.230;2023-02-08T03:21:08;99762.09;;;-4.86;83.37
8894;BME280;4483;48.622;9.230;2023-02-08T03:23:39;99750.13;;;-4.90;83.98
8894;BME280;4483;48.622;9.230;2023-02-08T03:26:11;99757.69;;;-4.90;83.49
8894;BME280;4483;48.622;9.230;2023-02-08T03:28:47;99761.94;;;-4.89;83.61
8894;BME280;4483;48.622;9.230;2023-02-08T03:31:21;99760.13;;;-4.92;83.99
8894;BME280;4483;48.622;9.230;2023-02-08T03:33:55;99760.75;;;-4.96;83.73
8894;BME280;4483;48.622;9.230;2023-02-08T03:36:26;99768.06;;;-5.00;83.46
8894;BME280;4483;48.622;9.230;2023-02-08T03:38:58;99759.66;;;-5.01;83.96
8894;BME280;4483;48.622;9.230;2023-02-08T03:41:29;99763.75;;;-5.03;84.23
8894;BME280;4483;48.622;9.230;2023-02-08T03:44:01;99764.53;;;-5.04;84.39
8894;BME280;4483;48.622;9.230;2023-02-08T03:46:32;99763.75;;;-5.03;83.93
8894;BME280;4483;48.622;9.230;2023-02-08T03:49:02;99761.16;;;-5.04;84.24
8894;BME280;4483;48.622;9.230;2023-02-08T03:51:31;99758.41;;;-5.09;83.90
8894;BME280;4483;48.622;9.230;2023-02-08T03:54:04;99756.94;;;-5.05;84.22
8894;BME280;4483;48.622;9.230;2023-02-08T03:56:35;99766.03;;;-5.07;83.60
8894;BME280;4483;48.622;9.230;2023-02-08T03:59:06;99751.66;;;-5.10;84.12
8894;BME280;4483;48.622;9.230;2023-02-08T04:01:38;99768.38;;;-5.11;83.90
8894;BME280;4483;48.622;9.230;2023-02-08T04:04:08;99757.47;;;-5.11;84.43
8894;BME280;4483;48.622;9.230;2023-02-08T04:06:36;99765.72;;;-5.14;83.85
8894;BME280;4483;48.622;9.230;2023-02-08T04:09:02;99734.84;;;-5.27;84.52
8894;BME280;4483;48.622;9.230;2023-02-08T04:11:29;99755.53;;;-5.17;84.21
8894;BME280;4483;48.622;9.230;2023-02-08T04:13:56;99766.53;;;-5.15;84.49
8894;BME280;4483;48.622;9.230;2023-02-08T04:16:22;99764.91;;;-5.13;84.48
8894;BME280;4483;48.622;9.230;2023-02-08T04:18:49;99768.22;;;-5.14;84.19
8894;BME280;4483;48.622;9.230;2023-02-08T04:21:17;99759.88;;;-5.13;83.78
8894;BME280;4483;48.622;9.230;2023-02-08T04:23:44;99759.81;;;-5.14;84.53
8894;BME280;4483;48.622;9.230;2023-02-08T04:26:10;99763.84;;;-5.18;83.69
8894;BME280;4483;48.622;9.230;2023-02-08T04:28:37;99757.09;;;-5.19;84.23
8894;BME280;4483;48.622;9.230;2023-02-08T04:31:04;99748.59;;;-5.21;83.96
8894;BME280;4483;48.622;9.230;2023-02-08T04:33:30;99751.88;;;-5.22;84.29
8894;BME280;4483;48.622;9.230;2023-02-08T04:35:57;99751.88;;;-5.22;84.76
8894;BME280;4483;48.622;9.230;2023-02-08T04:38:25;99756.91;;;-5.22;84.16
8894;BME280;4483;48.622;9.230;2023-02-08T04:40:51;99750.19;;;-5.23;84.28
8894;BME280;4483;48.622;9.230;2023-02-08T04:43:18;99749.22;;;-5.25;83.99
8894;BME280;4483;48.622;9.230;2023-02-08T04:45:44;99747.34;;;-5.29;83.75
8894;BME280;4483;48.622;9.230;2023-02-08T04:48:11;99746.09;;;-5.37;83.95
8894;BME280;4483;48.622;9.230;2023-02-08T04:50:38;99740.75;;;-5.43;83.99
8894;BME280;4483;48.622;9.230;2023-02-08T04:53:05;99739.72;;;-5.46;83.98
8894;BME280;4483;48.622;9.230;2023-02-08T04:55:33;99742.31;;;-5.45;83.99
8894;BME280;4483;48.622;9.230;2023-02-08T04:58:00;99739.00;;;-5.44;84.23
8894;BME280;4483;48.622;9.230;2023-02-08T05:00:26;99730.56;;;-5.46;84.35
8894;BME280;4483;48.622;9.230;2023-02-08T05:02:53;99738.78;;;-5.48;84.80
8894;BME280;4483;48.622;9.230;2023-02-08T05:05:21;99730.31;;;-5.50;85.01
8894;BME280;4483;48.622;9.230;2023-02-08T05:07:48;99732.75;;;-5.52;84.41
8894;BME280;4483;48.622;9.230;2023-02-08T05:10:15;99733.63;;;-5.51;84.33
8894;BME280;4483;48.622;9.230;2023-02-08T05:12:43;99726.69;;;-5.55;84.34
8894;BME280;4483;48.622;9.230;2023-02-08T05:15:09;99719.84;;;-5.58;84.54
8894;BME280;4483;48.622;9.230;2023-02-08T05:17:36;99722.03;;;-5.64;84.38
8894;BME280;4483;48.622;9.230;2023-02-08T05:20:05;99723.72;;;-5.64;84.72
8894;BME280;4483;48.622;9.230;2023-02-08T05:22:32;99721.97;;;-5.65;84.44
8894;BME280;4483;48.622;9.230;2023-02-08T05:24:59;99718.59;;;-5.66;84.47
8894;BME280;4483;48.622;9.230;2023-02-08T05:27:26;99721.88;;;-5.67;85.05
8894;BME280;4483;48.622;9.230;2023-02-08T05:29:54;99726.13;;;-5.66;84.12
8894;BME280;4483;48.622;9.230;2023-02-08T05:32:20;99728.47;;;-5.69;84.21
8894;BME280;4483;48.622;9.230;2023-02-08T05:34:47;99729.34;;;-5.68;84.71
8894;BME280;4483;48.622;9.230;2023-02-08T05:37:13;99730.03;;;-5.71;84.87
8894;BME280;4483;48.622;9.230;2023-02-08T05:39:40;99734.97;;;-5.72;84.23
8894;BME280;4483;48.622;9.230;2023-02-08T05:42:07;99735.94;;;-5.70;84.66
8894;BME280;4483;48.622;9.230;2023-02-08T05:44:33;99736.81;;;-5.70;84.76
8894;BME280;4483;48.622;9.230;2023-02-08T05:47:01;99741.03;;;-5.69;84.84
8894;BME280;4483;48.622;9.230;2023-02-08T05:49:28;99736.94;;;-5.67;84.79
8894;BME280;4483;48.622;9.230;2023-02-08T05:51:54;99730.84;;;-5.72;84.18
8894;BME280;4483;48.622;9.230;2023-02-08T05:54:21;99742.78;;;-5.68;84.28
8894;BME280;4483;48.622;9.230;2023-02-08T05:56:48;99741.91;;;-5.68;84.16
8894;BME280;4483;48.622;9.230;2023-02-08T05:59:14;99738.44;;;-5.70;84.68
8894;BME280;4483;48.622;9.230;2023-02-08T06:01:41;99740.00;;;-5.72;84.63
8894;BME280;4483;48.622;9.230;2023-02-08T06:04:09;99736.41;;;-5.77;85.15
8894;BME280;4483;48.622;9.230;2023-02-08T06:06:35;99745.91;;;-5.72;85.08
8894;BME280;4483;48.622;9.230;2023-02-08T06:09:02;99739.84;;;-5.75;84.59
8894;BME280;4483;48.622;9.230;2023-02-08T06:11:29;99753.03;;;-5.79;84.03
8894;BME280;4483;48.622;9.230;2023-02-08T06:13:55;99737.66;;;-5.85;84.59
8894;BME280;4483;48.622;9.230;2023-02-08T06:16:22;99746.06;;;-5.85;84.65
8894;BME280;4483;48.622;9.230;2023-02-08T06:18:48;99750.28;;;-5.84;84.44
8894;BME280;4483;48.622;9.230;2023-02-08T06:21:16;99746.81;;;-5.86;85.58
8894;BME280;4483;48.622;9.230;2023-02-08T06:23:43;99747.13;;;-5.80;84.99
8894;BME280;4483;48.622;9.230;2023-02-08T06:26:10;99750.44;;;-5.81;84.32
8894;BME280;4483;48.622;9.230;2023-02-08T06:28:36;99757.03;;;-5.83;84.62
8894;BME280;4483;48.622;9.230;2023-02-08T06:31:03;99748.41;;;-5.88;84.03
8894;BME280;4483;48.622;9.230;2023-02-08T06:33:30;99751.69;;;-5.89;84.12
8894;BME280;4483;48.622;9.230;2023-02-08T06:35:56;99745.78;;;-5.89;84.71
8894;BME280;4483;48.622;9.230;2023-02-08T06:38:25;99757.59;;;-5.88;84.76
8894;BME280;4483;48.622;9.230;2023-02-08T06:40:52;99756.03;;;-5.86;85.17
8894;BME280;4483;48.622;9.230;2023-02-08T06:43:18;99745.25;;;-5.84;84.21
8894;BME280;4483;48.622;9.230;2023-02-08T06:45:46;99754.34;;;-5.86;84.68
8894;BME280;4483;48.622;9.230;2023-02-08T06:48:13;99752.63;;;-5.87;84.82
8894;BME280;4483;48.622;9.230;2023-02-08T06:50:40;99755.16;;;-5.87;84.96
8894;BME280;4483;48.622;9.230;2023-02-08T06:53:06;99748.56;;;-5.85;85.16
8894;BME280;4483;48.622;9.230;2023-02-08T06:55:34;99750.59;;;-5.78;84.59
8894;BME280;4483;48.622;9.230;2023-02-08T06:58:01;99752.66;;;-5.55;85.08
8894;BME280;4483;48.622;9.230;2023-02-08T07:00:27;99755.06;;;-5.26;85.06
8894;BME280;4483;48.622;9.230;2023-02-08T07:02:54;99748.00;;;-4.83;84.93
8894;BME280;4483;48.622;9.230;2023-02-08T07:05:21;99740.91;;;-4.40;84.48
8894;BME280;4483;48.622;9.230;2023-02-08T07:07:47;99741.50;;;-3.93;83.10
8894;BME280;4483;48.622;9.230;2023-02-08T07:10:14;99740.25;;;-3.47;82.82
8894;BME280;4483;48.622;9.230;2023-02-08T07:12:42;99729.59;;;-3.03;82.49
8894;BME280;4483;48.622;9.230;2023-02-08T07:15:09;99746.63;;;-2.58;82.16
8894;BME280;4483;48.622;9.230;2023-02-08T07:17:37;99740.09;;;-2.12;80.91
8894;BME280;4483;48.622;9.230;2023-02-08T07:20:04;99749.44;;;-1.66;79.87
8894;BME280;4483;48.622;9.230;2023-02-08T07:22:31;99740.91;;;-1.24;79.17
8894;BME280;4483;48.622;9.230;2023-02-08T07:24:58;99741.56;;;-0.82;78.43
8894;BME280;4483;48.622;9.230;2023-02-08T07:27:24;99751.19;;;-0.47;76.43
8894;BME280;4483;48.622;9.230;2023-02-08T07:29:52;99743.00;;;-0.14;76.65
8894;BME280;4483;48.622;9.230;2023-02-08T07:32:19;99739.09;;;0.24;75.90
8894;BME280;4483;48.622;9.230;2023-02-08T07:34:46;99735.28;;;0.66;75.26
8894;BME280;4483;48.622;9.230;2023-02-08T07:37:12;99725.31;;;1.02;74.18
8894;BME280;4483;48.622;9.230;2023-02-08T07:39:39;99729.56;;;1.36;73.15
8894;BME280;4483;48.622;9.230;2023-02-08T07:42:07;99733.78;;;1.66;72.52
8894;BME280;4483;48.622;9.230;2023-02-08T07:44:35;99732.63;;;1.89;70.91
8894;BME280;4483;48.622;9.230;2023-02-08T07:47:03;99734.69;;;2.05;70.46
8894;BME280;4483;48.622;9.230;2023-02-08T07:49:30;99729.94;;;2.19;69.46
8894;BME280;4483;48.622;9.230;2023-02-08T07:51:58;99731.28;;;2.42;69.36
8894;BME280;4483;48.622;9.230;2023-02-08T07:54:24;99731.00;;;2.67;67.53
8894;BME280;4483;48.622;9.230;2023-02-08T07:56:51;99728.91;;;2.91;67.64
8894;BME280;4483;48.622;9.230;2023-02-08T07:59:17;99737.91;;;3.18;66.74
8894;BME280;4483;48.622;9.230;2023-02-08T08:01:44;99737.47;;;3.38;66.05
8894;BME280;4483;48.622;9.230;2023-02-08T08:04:12;99736.88;;;3.53;65.24
8894;BME280;4483;48.622;9.230;2023-02-08T08:06:39;99734.66;;;3.74;65.25
8894;BME280;4483;48.622;9.230;2023-02-08T08:09:05;99731.72;;;4.00;65.14
8894;BME280;4483;48.622;9.230;2023-02-08T08:11:32;99732.22;;;4.35;64.62
8894;BME280;4483;48.622;9.230;2023-02-08T08:13:58;99734.34;;;4.66;63.60
8894;BME280;4483;48.622;9.230;2023-02-08T08:16:25;99717.59;;;4.88;62.96
8894;BME280;4483;48.622;9.230;2023-02-08T08:18:51;99715.28;;;5.09;61.60
8894;BME280;4483;48.622;9.230;2023-02-08T08:21:19;99710.44;;;5.35;61.21
8894;BME280;4483;48.622;9.230;2023-02-08T08:23:46;99715.75;;;5.59;60.93
8894;BME280;4483;48.622;9.230;2023-02-08T08:26:15;99716.94;;;5.89;60.52
8894;BME280;4483;48.622;9.230;2023-02-08T08:28:42;99712.81;;;6.13;58.50
8894;BME280;4483;48.622;9.230;2023-02-08T08:31:11;99720.56;;;6.22;54.66
8894;BME280;4483;48.622;9.230;2023-02-08T08:33:38;99712.06;;;6.24;50.99
8894;BME280;4483;48.622;9.230;2023-02-08T08:36:06;99702.75;;;6.35;52.32
8894;BME280;4483;48.622;9.230;2023-02-08T08:38:34;99702.78;;;6.49;51.26
8894;BME280;4483;48.622;9.230;2023-02-08T08:41:06;99702.00;;;6.59;48.88
8894;BME280;4483;48.622;9.230;2023-02-08T08:43:32;99708.06;;;6.80;49.73
8894;BME280;4483;48.622;9.230;2023-02-08T08:45:59;99700.44;;;6.98;50.09
8894;BME280;4483;48.622;9.230;2023-02-08T08:48:25;99697.91;;;7.07;47.90
8894;BME280;4483;48.622;9.230;2023-02-08T08:50:52;99696.22;;;7.22;48.59
8894;BME280;4483;48.622;9.230;2023-02-08T08:53:19;99694.56;;;7.42;47.86
8894;BME280;4483;48.622;9.230;2023-02-08T08:55:47;99698.00;;;7.47;44.48
8894;BME280;4483;48.622;9.230;2023-02-08T08:58:14;99692.84;;;7.42;44.08
8894;BME280;4483;48.622;9.230;2023-02-08T09:00:40;99692.03;;;7.52;45.00
8894;BME280;4483;48.622;9.230;2023-02-08T09:03:07;99693.72;;;7.70;44.71
8894;BME280;4483;48.622;9.230;2023-02-08T09:05:34;99692.00;;;7.75;44.39
8894;BME280;4483;48.622;9.230;2023-02-08T09:08:00;99686.88;;;7.94;43.93
8894;BME280;4483;48.622;9.230;2023-02-08T09:10:28;99682.59;;;7.95;40.73
8894;BME280;4483;48.622;9.230;2023-02-08T09:12:56;99682.56;;;8.04;43.09
8894;BME280;4483;48.622;9.230;2023-02-08T09:15:23;99684.28;;;8.20;41.95
8894;BME280;4483;48.622;9.230;2023-02-08T09:17:49;99688.56;;;8.18;40.54
8894;BME280;4483;48.622;9.230;2023-02-08T09:20:16;99687.69;;;8.19;40.90
8894;BME280;4483;48.622;9.230;2023-02-08T09:22:42;99688.56;;;8.20;37.25
8894;BME280;4483;48.622;9.230;2023-02-08T09:25:09;99693.69;;;8.30;40.27
8894;BME280;4483;48.622;9.230;2023-02-08T09:27:36;99676.53;;;8.43;39.78
8894;BME280;4483;48.622;9.230;2023-02-08T09:30:04;99678.22;;;8.48;37.44
8894;BME280;4483;48.622;9.230;2023-02-08T09:32:31;99680.75;;;8.62;36.92
8894;BME280;4483;48.622;9.230;2023-02-08T09:34:59;99675.56;;;8.72;37.56
8894;BME280;4483;48.622;9.230;2023-02-08T09:37:26;99677.22;;;8.91;38.43
8894;BME280;4483;48.622;9.230;2023-02-08T09:39:53;99677.28;;;8.76;36.00
8894;BME280;4483;48.622;9.230;2023-02-08T09:42:29;99672.06;;;8.94;36.98
8894;BME280;4483;48.622;9.230;2023-02-08T09:45:18;99677.06;;;9.14;37.10
8894;BME280;4483;48.622;9.230;2023-02-08T09:47:53;99672.78;;;9.21;36.05
8894;BME280;4483;48.622;9.230;2023-02-08T09:50:29;99676.13;;;9.27;35.13
8894;BME280;4483;48.622;9.230;2023-02-08T09:53:01;99675.16;;;9.48;36.73
8894;BME280;4483;48.622;9.230;2023-02-08T09:55:34;99666.59;;;9.46;35.06
8894;BME280;4483;48.622;9.230;2023-02-08T09:58:04;99669.09;;;9.55;34.18
8894;BME280;4483;48.622;9.230;2023-02-08T10:00:38;99666.56;;;9.50;34.27
8894;BME280;4483;48.622;9.230;2023-02-08T10:03:20;99656.38;;;9.35;34.27
8894;BME280;4483;48.622;9.230;2023-02-08T10:05:48;99664.09;;;9.32;33.99
8894;BME280;4483;48.622;9.230;2023-02-08T10:08:15;99662.19;;;9.61;34.57
8894;BME280;4483;48.622;9.230;2023-02-08T10:10:46;99655.06;;;9.87;34.15
8894;BME280;4483;48.622;9.230;2023-02-08T10:13:29;99661.19;;;9.74;33.20
8894;BME280;4483;48.622;9.230;2023-02-08T10:16:06;99646.31;;;10.06;34.42
8894;BME280;4483;48.622;9.230;2023-02-08T10:18:45;99642.88;;;10.10;33.03
8894;BME280;4483;48.622;9.230;2023-02-08T10:21:33;99653.72;;;9.46;32.50
8894;BME280;4483;48.622;9.230;2023-02-08T10:24:18;99631.09;;;9.84;33.74
8894;BME280;4483;48.622;9.230;2023-02-08T10:26:55;99642.81;;;10.18;32.34
8894;BME280;4483;48.622;9.230;2023-02-08T10:29:55;99644.53;;;10.14;32.25
8894;BME280;4483;48.622;9.230;2023-02-08T10:32:43;99650.56;;;10.15;31.16
8894;BME280;4483;48.622;9.230;2023-02-08T10:35:12;99648.13;;;9.97;31.40
8894;BME280;4483;48.622;9.230;2023-02-08T10:37:41;99650.94;;;9.71;31.16
8894;BME280;4483;48.622;9.230;2023-02-08T10:40:23;99637.25;;;9.63;31.50
8894;BME280;4483;48.622;9.230;2023-02-08T10:43:02;99646.81;;;9.54;32.19
8894;BME280;4483;48.622;9.230;2023-02-08T10:45:35;99630.81;;;9.16;31.37
8894;BME280;4483;48.622;9.230;2023-02-08T10:48:11;99647.13;;;9.10;32.00
8894;BME280;4483;48.622;9.230;2023-02-08T10:50:41;99639.53;;;8.87;31.67
8894;BME280;4483;48.622;9.230;2023-02-08T10:53:12;99630.91;;;8.99;32.49
8894;BME280;4483;48.622;9.230;2023-02-08T10:55:41;99624.03;;;8.99;32.32
8894;BME280;4483;48.622;9.230;2023-02-08T10:58:13;99617.19;;;8.98;31.81
8894;BME280;4483;48.622;9.230;2023-02-08T11:00:41;99624.75;;;9.18;32.81
8894;BME280;4483;48.622;9.230;2023-02-08T11:03:15;99623.56;;;9.63;31.97
8894;BME280;4483;48.622;9.230;2023-02-08T11:05:43;99610.88;;;9.40;32.25
8894;BME280;4483;48.622;9.230;2023-02-08T11:08:13;99619.31;;;9.59;32.54
8894;BME280;4483;48.622;9.230;2023-02-08T11:13:19;99601.00;;;9.90;32.38
8894;BME280;4483;48.622;9.230;2023-02-08T11:15:48;99601.25;;;9.65;31.83
8894;BME280;4483;48.622;9.230;2023-02-08T11:18:21;99603.00;;;9.60;31.92
8894;BME280;4483;48.622;9.230;2023-02-08T11:20:50;99592.38;;;9.96;32.79
8894;BME280;4483;48.622;9.230;2023-02-08T11:23:20;99593.03;;;10.14;31.89
8894;BME280;4483;48.622;9.230;2023-02-08T11:25:49;99586.03;;;10.27;31.50
8894;BME280;4483;48.622;9.230;2023-02-08T11:28:25;99587.47;;;10.49;32.11
8894;BME280;4483;48.622;9.230;2023-02-08T11:30:58;99581.19;;;10.68;32.14
8894;BME280;4483;48.622;9.230;2023-02-08T11:33:27;99579.38;;;10.76;31.90
8894;BME280;4483;48.622;9.230;2023-02-08T11:36:03;99572.47;;;10.77;31.56
8894;BME280;4483;48.622;9.230;2023-02-08T11:38:31;99566.19;;;10.96;32.51
8894;BME280;4483;48.622;9.230;2023-02-08T11:41:00;99565.34;;;10.95;31.34
8894;BME280;4483;48.622;9.230;2023-02-08T11:43:29;99566.94;;;11.02;32.52
8894;BME280;4483;48.622;9.230;2023-02-08T11:45:57;99562.41;;;11.18;31.85
8894;BME280;4483;48.622;9.230;2023-02-08T11:48:34;99556.31;;;11.24;32.07
8894;BME280;4483;48.622;9.230;2023-02-08T11:51:03;99556.94;;;11.36;32.10
8894;BME280;4483;48.622;9.230;2023-02-08T11:53:33;99564.34;;;11.56;31.68
8894;BME280;4483;48.622;9.230;2023-02-08T11:56:09;99553.19;;;11.03;31.21
8894;BME280;4483;48.622;9.230;2023-02-08T11:58:40;99566.69;;;10.61;31.16
8894;BME280;4483;48.622;9.230;2023-02-08T12:01:16;99559.22;;;10.43;32.39
8894;BME280;4483;48.622;9.230;2023-02-08T12:03:45;99556.03;;;10.23;32.89
8894;BME280;4483;48.622;9.230;2023-02-08T12:09:15;99546.19;;;10.52;32.59
8894;BME280;4483;48.622;9.230;2023-02-08T12:11:48;99550.47;;;10.53;32.14
8894;BME280;4483;48.622;9.230;2023-02-08T12:14:25;99553.31;;;10.34;32.98
8894;BME280;4483;48.622;9.230;2023-02-08T12:17:06;99544.00;;;10.84;33.24
8894;BME280;4483;48.622;9.230;2023-02-08T12:20:15;99541.03;;;11.10;32.68
8894;BME280;4483;48.622;9.230;2023-02-08T12:22:52;99533.41;;;11.02;32.27
8894;BME280;4483;48.622;9.230;2023-02-08T12:25:24;99529.97;;;11.03;32.59
8894;BME280;4483;48.622;9.230;2023-02-08T12:28:03;99527.31;;;11.08;32.63
8894;BME280;4483;48.622;9.230;2023-02-08T12:30:37;99526.00;;;10.81;31.06
8894;BME280;4483;48.622;9.230;2023-02-08T12:33:21;99531.09;;;10.25;31.10
8894;BME280;4483;48.622;9.230;2023-02-08T12:35:57;99525.69;;;9.69;32.42
8894;BME280;4483;48.622;9.230;2023-02-08T12:41:45;99514.38;;;9.85;32.43
8894;BME280;4483;48.622;9.230;2023-02-08T12:44:23;99506.56;;;9.94;33.40
8894;BME280;4483;48.622;9.230;2023-02-08T12:47:01;99522.97;;;9.82;32.12
8894;BME280;4483;48.622;9.230;2023-02-08T12:49:53;99502.09;;;10.06;32.95
8894;BME280;4483;48.622;9.230;2023-02-08T12:52:32;99503.13;;;9.93;33.33
8894;BME280;4483;48.622;9.230;2023-02-08T12:55:08;99496.28;;;9.91;32.58
8894;BME280;4483;48.622;9.230;2023-02-08T12:57:40;99492.97;;;9.80;32.70
8894;BME280;4483;48.622;9.230;2023-02-08T13:00:17;99485.28;;;9.77;33.02
8894;BME280;4483;48.622;9.230;2023-02-08T13:02:49;99477.22;;;10.05;33.20
8894;BME280;4483;48.622;9.230;2023-02-08T13:05:22;99478.91;;;10.08;33.46
8894;BME280;4483;48.622;9.230;2023-02-08T13:07:56;99469.69;;;9.89;32.74
8894;BME280;4483;48.622;9.230;2023-02-08T13:10:28;99461.19;;;9.84;33.31
8894;BME280;4483;48.622;9.230;2023-02-08T13:13:03;99464.75;;;9.71;33.97
8894;BME280;4483;48.622;9.230;2023-02-08T13:15:37;99473.28;;;9.74;33.69
8894;BME280;4483;48.622;9.230;2023-02-08T13:18:11;99455.41;;;9.67;33.30
8894;BME280;4483;48.622;9.230;2023-02-08T13:20:44;99456.41;;;9.51;33.48
8894;BME280;4483;48.622;9.230;2023-02-08T13:23:19;99452.00;;;9.62;33.71
8894;BME280;4483;48.622;9.230;2023-02-08T13:25:50;99450.25;;;9.65;33.12
8894;BME280;4483;48.622;9.230;2023-02-08T13:28:20;99450.03;;;9.85;33.70
8894;BME280;4483;48.622;9.230;2023-02-08T13:30:54;99452.50;;;9.92;33.09
8894;BME280;4483;48.622;9.230;2023-02-08T13:33:28;99444.00;;;9.86;32.35
8894;BME280;4483;48.622;9.230;2023-02-08T13:35:56;99450.44;;;9.49;32.16
8894;BME280;4483;48.622;9.230;2023-02-08T13:38:27;99456.41;;;9.51;33.26
8894;BME280;4483;48.622;9.230;2023-02-08T13:41:05;99447.34;;;9.17;32.78
8894;BME280;4483;48.622;9.230;2023-02-08T13:43:36;99438.00;;;9.08;32.83
8894;BME280;4483;48.622;9.230;2023-02-08T13:46:04;99453.94;;;9.45;33.42
8894;BME280;4483;48.622;9.230;2023-02-08T13:48:42;99454.59;;;9.60;33.48
8894;BME280;4483;48.622;9.230;2023-02-08T13:54:21;99448.47;;;9.72;32.64
8894;BME280;4483;48.622;9.230;2023-02-08T13:56:49;99466.50;;;9.70;32.44